^^
Saratoga-Weather Station Historical Data
Daily Summary for August 10, 2020 Units:  Both    English   Metric
Daily Weekly Monthly Yearly Custom
  High: Low: Average:
Temperature: 96.8 °F /  36 °C 68.9 °F /  20.5 °C 83.7 °F /  28.7 °C
Dew Point: 64 °F /  17.8 °C 58.6 °F /  14.8 °C 61.5 °F /  16.4 °C
Humidity: 76% 29% 50%
Wind Speed: 6.9mph /  11.1km/h - 1.2mph /  2km/h
Wind Gust: 11mph /  17.7km/h - -
Wind- - SE
Pressure: 29.9 in /  1013.9 hPa 29.8 in /  1009.8 hPa -
Precipitation: 0 in /  0.0 mm    
Historical Graphs
 
 
Tabular Data for August 10, 2020
Time Temperature Dew Point Pressure Wind Wind Speed Wind Gust Humidity Rainfall Rate (Hourly) solar
00:03 78.4 °F /  25.8 °C 62.4 °F /  16.9 °C 29.9in /  1013.2hPa WNW 0.9mph /  1.4km/h 3mph /  4.8km/h 58% 0in /  0.0mm 0 W/m2
00:08 78.1 °F /  25.6 °C 62.6 °F /  17 °C 29.9in /  1013.2hPa West 0.9mph /  1.4km/h 1mph /  1.6km/h 59% 0in /  0.0mm 0 W/m2
00:13 77.7 °F /  25.4 °C 62.2 °F /  16.8 °C 29.9in /  1013.2hPa WSW 0.9mph /  1.4km/h 2mph /  3.2km/h 59% 0in /  0.0mm 0 W/m2
00:18 77.5 °F /  25.3 °C 62.6 °F /  17 °C 29.9in /  1013.2hPa Calm   1mph /  1.6km/h 60% 0in /  0.0mm 0 W/m2
00:23 77.4 °F /  25.2 °C 62.4 °F /  16.9 °C 29.9in /  1013.2hPa Calm   3mph /  4.8km/h 60% 0in /  0.0mm 0 W/m2
00:28 77.4 °F /  25.2 °C 61.9 °F /  16.6 °C 29.9in /  1013.2hPa Calm   2mph /  3.2km/h 59% 0in /  0.0mm 0 W/m2
00:33 77.4 °F /  25.2 °C 62.4 °F /  16.9 °C 29.9in /  1013.5hPa Calm     60% 0in /  0.0mm 0 W/m2
00:38 77.4 °F /  25.2 °C 61.3 °F /  16.3 °C 29.9in /  1013.5hPa West 4mph /  6.4km/h 4mph /  6.4km/h 58% 0in /  0.0mm 0 W/m2
00:43 78.1 °F /  25.6 °C 61.5 °F /  16.4 °C 29.9in /  1013.5hPa West 4mph /  6.4km/h 6mph /  9.7km/h 57% 0in /  0.0mm 0 W/m2
00:48 78.4 °F /  25.8 °C 61.5 °F /  16.4 °C 29.9in /  1013.5hPa Calm   3mph /  4.8km/h 56% 0in /  0.0mm 0 W/m2
00:53 78.6 °F /  25.9 °C 61.2 °F /  16.2 °C 29.9in /  1013.5hPa WNW 2.9mph /  4.7km/h 3mph /  4.8km/h 55% 0in /  0.0mm 0 W/m2
00:58 78.6 °F /  25.9 °C 61.2 °F /  16.2 °C 29.9in /  1013.5hPa West 2.9mph /  4.7km/h 4mph /  6.4km/h 55% 0in /  0.0mm 0 W/m2
01:03 78.6 °F /  25.9 °C 60.6 °F /  15.9 °C 29.9in /  1013.5hPa NW 2mph /  3.2km/h 7mph /  11.3km/h 54% 0in /  0.0mm 0 W/m2
01:08 78.8 °F /  26 °C 61.3 °F /  16.3 °C 29.9in /  1013.9hPa NNW 0.9mph /  1.4km/h 2mph /  3.2km/h 55% 0in /  0.0mm 0 W/m2
01:13 78.6 °F /  25.9 °C 61.2 °F /  16.2 °C 29.9in /  1013.9hPa WNW 4mph /  6.4km/h 6mph /  9.7km/h 55% 0in /  0.0mm 0 W/m2
01:18 78.6 °F /  25.9 °C 61.2 °F /  16.2 °C 29.9in /  1013.9hPa WSW 2mph /  3.2km/h 3mph /  4.8km/h 55% 0in /  0.0mm 0 W/m2
01:23 78.4 °F /  25.8 °C 61 °F /  16.1 °C 29.9in /  1013.9hPa East 2mph /  3.2km/h 2mph /  3.2km/h 55% 0in /  0.0mm 0 W/m2
01:28 78.4 °F /  25.8 °C 61.5 °F /  16.4 °C 29.9in /  1013.9hPa Calm   2mph /  3.2km/h 56% 0in /  0.0mm 0 W/m2
01:33 78.3 °F /  25.7 °C 61.3 °F /  16.3 °C 29.9in /  1013.9hPa SE 0.9mph /  1.4km/h 2mph /  3.2km/h 56% 0in /  0.0mm 0 W/m2
01:38 78.3 °F /  25.7 °C 61.3 °F /  16.3 °C 29.9in /  1013.5hPa Calm   5mph /  8km/h 56% 0in /  0.0mm 0 W/m2
01:43 78.1 °F /  25.6 °C 61.2 °F /  16.2 °C 29.9in /  1013.5hPa SW 2mph /  3.2km/h 3mph /  4.8km/h 56% 0in /  0.0mm 0 W/m2
01:48 77.9 °F /  25.5 °C 61.5 °F /  16.4 °C 29.9in /  1013.5hPa NNW 2mph /  3.2km/h 5mph /  8km/h 57% 0in /  0.0mm 0 W/m2
01:53 77.7 °F /  25.4 °C 61.3 °F /  16.3 °C 29.9in /  1013.5hPa NW 0.9mph /  1.4km/h 1mph /  1.6km/h 57% 0in /  0.0mm 0 W/m2
01:58 77.7 °F /  25.4 °C 61.3 °F /  16.3 °C 29.9in /  1013.5hPa Calm   3mph /  4.8km/h 57% 0in /  0.0mm 0 W/m2
02:03 77.5 °F /  25.3 °C 61.2 °F /  16.2 °C 29.9in /  1013.5hPa WSW 2mph /  3.2km/h 2mph /  3.2km/h 57% 0in /  0.0mm 0 W/m2
02:08 77.5 °F /  25.3 °C 61.2 °F /  16.2 °C 29.9in /  1013.5hPa NNE 2.9mph /  4.7km/h 5mph /  8km/h 57% 0in /  0.0mm 0 W/m2
02:13 77.5 °F /  25.3 °C 61.2 °F /  16.2 °C 29.9in /  1013.2hPa SSW 0.9mph /  1.4km/h 2mph /  3.2km/h 57% 0in /  0.0mm 0 W/m2
02:18 77.5 °F /  25.3 °C 61.2 °F /  16.2 °C 29.9in /  1013.5hPa West 0.9mph /  1.4km/h 4mph /  6.4km/h 57% 0in /  0.0mm 0 W/m2
02:23 77.5 °F /  25.3 °C 61.5 °F /  16.4 °C 29.9in /  1013.5hPa SSW 2mph /  3.2km/h 4mph /  6.4km/h 58% 0in /  0.0mm 0 W/m2
02:28 77.4 °F /  25.2 °C 61.3 °F /  16.3 °C 29.9in /  1013.5hPa SW 4mph /  6.4km/h 11mph /  17.7km/h 58% 0in /  0.0mm 0 W/m2
02:34 77.2 °F /  25.1 °C 61.3 °F /  16.3 °C 29.9in /  1013.5hPa South 2mph /  3.2km/h 5mph /  8km/h 58% 0in /  0.0mm 0 W/m2
02:39 77 °F /  25 °C 61.2 °F /  16.2 °C 29.9in /  1013.2hPa SE 2.9mph /  4.7km/h 11mph /  17.7km/h 58% 0in /  0.0mm 0 W/m2
02:44 76.8 °F /  24.9 °C 61 °F /  16.1 °C 29.9in /  1013.5hPa WSW 0.9mph /  1.4km/h 2mph /  3.2km/h 58% 0in /  0.0mm 0 W/m2
02:49 76.6 °F /  24.8 °C 61.2 °F /  16.2 °C 29.9in /  1013.5hPa Calm   1mph /  1.6km/h 59% 0in /  0.0mm 0 W/m2
02:54 76.5 °F /  24.7 °C 61 °F /  16.1 °C 29.9in /  1013.5hPa Calm   1mph /  1.6km/h 59% 0in /  0.0mm 0 W/m2
02:59 76.3 °F /  24.6 °C 61.3 °F /  16.3 °C 29.9in /  1013.5hPa West 2mph /  3.2km/h 2mph /  3.2km/h 60% 0in /  0.0mm 0 W/m2
03:04 75.9 °F /  24.4 °C 61.5 °F /  16.4 °C 29.9in /  1013.2hPa Calm   2mph /  3.2km/h 61% 0in /  0.0mm 0 W/m2
03:09 75.7 °F /  24.3 °C 60.8 °F /  16 °C 29.9in /  1013.2hPa ENE 2.9mph /  4.7km/h 3mph /  4.8km/h 60% 0in /  0.0mm 0 W/m2
03:14 75.7 °F /  24.3 °C 60.8 °F /  16 °C 29.9in /  1013.2hPa East 2mph /  3.2km/h 3mph /  4.8km/h 60% 0in /  0.0mm 0 W/m2
03:19 75.7 °F /  24.3 °C 60.8 °F /  16 °C 29.9in /  1013.2hPa Calm   2mph /  3.2km/h 60% 0in /  0.0mm 0 W/m2
03:24 75.6 °F /  24.2 °C 61.2 °F /  16.2 °C 29.9in /  1013.2hPa Calm   1mph /  1.6km/h 61% 0in /  0.0mm 0 W/m2
03:29 75.2 °F /  24 °C 61.3 °F /  16.3 °C 29.9in /  1012.9hPa SSE 2.9mph /  4.7km/h 3mph /  4.8km/h 62% 0in /  0.0mm 0 W/m2
03:35 74.8 °F /  23.8 °C 61.3 °F /  16.3 °C 29.9in /  1012.9hPa ESE 2mph /  3.2km/h 2mph /  3.2km/h 63% 0in /  0.0mm 0 W/m2
03:40 74.7 °F /  23.7 °C 61.2 °F /  16.2 °C 29.9in /  1012.9hPa Calm   2mph /  3.2km/h 63% 0in /  0.0mm 0 W/m2
03:45 74.1 °F /  23.4 °C 61.2 °F /  16.2 °C 29.9in /  1012.9hPa ESE 0.9mph /  1.4km/h 2mph /  3.2km/h 64% 0in /  0.0mm 0 W/m2
03:50 73.9 °F /  23.3 °C 61 °F /  16.1 °C 29.9in /  1012.9hPa ESE 0.9mph /  1.4km/h 2mph /  3.2km/h 64% 0in /  0.0mm 0 W/m2
03:55 73.6 °F /  23.1 °C 61.2 °F /  16.2 °C 29.9in /  1012.9hPa ESE 0.9mph /  1.4km/h 2mph /  3.2km/h 65% 0in /  0.0mm 0 W/m2
04:00 73.2 °F /  22.9 °C 61.2 °F /  16.2 °C 29.9in /  1012.9hPa ESE 0.9mph /  1.4km/h 2mph /  3.2km/h 66% 0in /  0.0mm 0 W/m2
04:05 73 °F /  22.8 °C 61 °F /  16.1 °C 29.9in /  1012.9hPa Calm   1mph /  1.6km/h 66% 0in /  0.0mm 0 W/m2
04:10 72.9 °F /  22.7 °C 61.3 °F /  16.3 °C 29.9in /  1012.9hPa Calm   2mph /  3.2km/h 67% 0in /  0.0mm 0 W/m2
04:15 72.7 °F /  22.6 °C 61.2 °F /  16.2 °C 29.9in /  1012.9hPa Calm     67% 0in /  0.0mm 0 W/m2
04:20 72.3 °F /  22.4 °C 61.2 °F /  16.2 °C 29.9in /  1012.5hPa Calm   2mph /  3.2km/h 68% 0in /  0.0mm 0 W/m2
04:25 72.1 °F /  22.3 °C 61 °F /  16.1 °C 29.9in /  1012.5hPa Calm     68% 0in /  0.0mm 0 W/m2
04:30 72 °F /  22.2 °C 61.2 °F /  16.2 °C 29.9in /  1012.5hPa ESE 0.9mph /  1.4km/h 1mph /  1.6km/h 69% 0in /  0.0mm 0 W/m2
04:35 72 °F /  22.2 °C 60.8 °F /  16 °C 29.9in /  1012.2hPa ESE 0.9mph /  1.4km/h 1mph /  1.6km/h 68% 0in /  0.0mm 0 W/m2
04:40 72 °F /  22.2 °C 60.8 °F /  16 °C 29.9in /  1012.2hPa ESE 0.9mph /  1.4km/h 2mph /  3.2km/h 68% 0in /  0.0mm 0 W/m2
04:45 72 °F /  22.2 °C 61.2 °F /  16.2 °C 29.9in /  1012.2hPa Calm     69% 0in /  0.0mm 0 W/m2
04:51 72 °F /  22.2 °C 61.2 °F /  16.2 °C 29.9in /  1012.2hPa Calm   2mph /  3.2km/h 69% 0in /  0.0mm 0 W/m2
04:56 72 °F /  22.2 °C 61.2 °F /  16.2 °C 29.9in /  1012.2hPa Calm     69% 0in /  0.0mm 0 W/m2
05:01 71.8 °F /  22.1 °C 61 °F /  16.1 °C 29.9in /  1012.2hPa Calm   3mph /  4.8km/h 69% 0in /  0.0mm 0 W/m2
05:06 71.6 °F /  22 °C 61.3 °F /  16.3 °C 29.9in /  1012.2hPa Calm     70% 0in /  0.0mm 0 W/m2
05:11 71.4 °F /  21.9 °C 61.2 °F /  16.2 °C 29.9in /  1012.2hPa South 0.9mph /  1.4km/h 3mph /  4.8km/h 70% 0in /  0.0mm 0 W/m2
05:16 71.4 °F /  21.9 °C 61.2 °F /  16.2 °C 29.9in /  1012.2hPa Calm   1mph /  1.6km/h 70% 0in /  0.0mm 0 W/m2
05:21 71.2 °F /  21.8 °C 61 °F /  16.1 °C 29.9in /  1012.2hPa Calm   2mph /  3.2km/h 70% 0in /  0.0mm 0 W/m2
05:26 71.1 °F /  21.7 °C 60.8 °F /  16 °C 29.9in /  1011.9hPa Calm   1mph /  1.6km/h 70% 0in /  0.0mm 0 W/m2
05:31 70.9 °F /  21.6 °C 61 °F /  16.1 °C 29.9in /  1011.9hPa South 0.9mph /  1.4km/h 1mph /  1.6km/h 71% 0in /  0.0mm 0 W/m2
05:36 70.7 °F /  21.5 °C 61.2 °F /  16.2 °C 29.9in /  1011.9hPa South 0.9mph /  1.4km/h 2mph /  3.2km/h 72% 0in /  0.0mm 0 W/m2
05:41 70.5 °F /  21.4 °C 61 °F /  16.1 °C 29.9in /  1011.9hPa South 0.9mph /  1.4km/h 1mph /  1.6km/h 72% 0in /  0.0mm 0 W/m2
05:46 70.3 °F /  21.3 °C 60.8 °F /  16 °C 29.9in /  1012.2hPa Calm   1mph /  1.6km/h 72% 0in /  0.0mm 0 W/m2
05:51 70.2 °F /  21.2 °C 60.6 °F /  15.9 °C 29.9in /  1011.9hPa South 0.9mph /  1.4km/h 1mph /  1.6km/h 72% 0in /  0.0mm 0 W/m2
05:56 70 °F /  21.1 °C 61 °F /  16.1 °C 29.9in /  1011.9hPa Calm   1mph /  1.6km/h 73% 0in /  0.0mm 0 W/m2
06:01 69.8 °F /  21 °C 60.8 °F /  16 °C 29.9in /  1011.9hPa Calm     73% 0in /  0.0mm 0 W/m2
06:06 69.6 °F /  20.9 °C 61 °F /  16.1 °C 29.9in /  1011.9hPa Calm     74% 0in /  0.0mm 0 W/m2
06:11 69.4 °F /  20.8 °C 60.8 °F /  16 °C 29.9in /  1012.2hPa Calm     74% 0in /  0.0mm 0 W/m2
06:16 69.4 °F /  20.8 °C 60.8 °F /  16 °C 29.9in /  1012.2hPa Calm     74% 0in /  0.0mm 0 W/m2
06:21 69.3 °F /  20.7 °C 61 °F /  16.1 °C 29.9in /  1012.2hPa Calm     75% 0in /  0.0mm 0 W/m2
06:26 69.3 °F /  20.7 °C 61 °F /  16.1 °C 29.9in /  1012.2hPa Calm     75% 0in /  0.0mm 5 W/m2
06:31 69.3 °F /  20.7 °C 61 °F /  16.1 °C 29.9in /  1012.2hPa Calm     75% 0in /  0.0mm 7 W/m2
06:36 69.1 °F /  20.6 °C 60.8 °F /  16 °C 29.9in /  1012.2hPa Calm     75% 0in /  0.0mm 11 W/m2
06:41 69.1 °F /  20.6 °C 61.2 °F /  16.2 °C 29.9in /  1012.2hPa Calm     76% 0in /  0.0mm 14 W/m2
06:46 68.9 °F /  20.5 °C 61 °F /  16.1 °C 29.9in /  1012.2hPa South 0.9mph /  1.4km/h 1mph /  1.6km/h 76% 0in /  0.0mm 18 W/m2
06:51 68.9 °F /  20.5 °C 61 °F /  16.1 °C 29.9in /  1012.2hPa Calm     76% 0in /  0.0mm 21 W/m2
06:56 69.1 °F /  20.6 °C 61.2 °F /  16.2 °C 29.9in /  1012.2hPa Calm     76% 0in /  0.0mm 25 W/m2
07:01 69.1 °F /  20.6 °C 61.2 °F /  16.2 °C 29.9in /  1012.2hPa South 0.9mph /  1.4km/h 1mph /  1.6km/h 76% 0in /  0.0mm 26 W/m2
07:07 69.3 °F /  20.7 °C 61.3 °F /  16.3 °C 29.9in /  1012.2hPa Calm   1mph /  1.6km/h 76% 0in /  0.0mm 30 W/m2
07:12 69.4 °F /  20.8 °C 61.5 °F /  16.4 °C 29.9in /  1012.2hPa Calm     76% 0in /  0.0mm 33 W/m2
07:17 69.4 °F /  20.8 °C 61.5 °F /  16.4 °C 29.9in /  1012.2hPa Calm   1mph /  1.6km/h 76% 0in /  0.0mm 35 W/m2
07:22 69.6 °F /  20.9 °C 61.7 °F /  16.5 °C 29.9in /  1012.2hPa Calm     76% 0in /  0.0mm 39 W/m2
07:27 69.8 °F /  21 °C 61.9 °F /  16.6 °C 29.9in /  1012.5hPa Calm     76% 0in /  0.0mm 40 W/m2
07:32 70.2 °F /  21.2 °C 62.2 °F /  16.8 °C 29.9in /  1012.5hPa Calm   1mph /  1.6km/h 76% 0in /  0.0mm 42 W/m2
07:37 70.5 °F /  21.4 °C 61.9 °F /  16.6 °C 29.9in /  1012.5hPa Calm   2mph /  3.2km/h 74% 0in /  0.0mm 44 W/m2
07:42 71.2 °F /  21.8 °C 62.1 °F /  16.7 °C 29.9in /  1012.5hPa Calm   1mph /  1.6km/h 73% 0in /  0.0mm 46 W/m2
07:47 71.4 °F /  21.9 °C 61.9 °F /  16.6 °C 29.9in /  1012.5hPa Calm     72% 0in /  0.0mm 49 W/m2
07:52 71.8 °F /  22.1 °C 61.5 °F /  16.4 °C 29.9in /  1012.5hPa Calm   2mph /  3.2km/h 70% 0in /  0.0mm 53 W/m2
07:57 72.1 °F /  22.3 °C 61.9 °F /  16.6 °C 29.9in /  1012.5hPa Calm     70% 0in /  0.0mm 62 W/m2
08:02 72.3 °F /  22.4 °C 62.1 °F /  16.7 °C 29.9in /  1012.5hPa Calm   2mph /  3.2km/h 70% 0in /  0.0mm 63 W/m2
08:07 72.7 °F /  22.6 °C 61.9 °F /  16.6 °C 29.9in /  1012.5hPa Calm     69% 0in /  0.0mm 74 W/m2
08:12 73 °F /  22.8 °C 62.2 °F /  16.8 °C 29.9in /  1012.5hPa Calm   2mph /  3.2km/h 69% 0in /  0.0mm 65 W/m2
08:17 73.6 °F /  23.1 °C 61.9 °F /  16.6 °C 29.9in /  1012.5hPa Calm   2mph /  3.2km/h 67% 0in /  0.0mm 65 W/m2
08:22 74.1 °F /  23.4 °C 62.4 °F /  16.9 °C 29.9in /  1012.5hPa Calm   2mph /  3.2km/h 67% 0in /  0.0mm 67 W/m2
08:27 74.7 °F /  23.7 °C 62.6 °F /  17 °C 29.9in /  1012.5hPa Calm   2mph /  3.2km/h 66% 0in /  0.0mm 67 W/m2
08:32 75 °F /  23.9 °C 62.4 °F /  16.9 °C 29.9in /  1012.5hPa North 0.9mph /  1.4km/h 2mph /  3.2km/h 65% 0in /  0.0mm 70 W/m2
08:37 75.7 °F /  24.3 °C 62.8 °F /  17.1 °C 29.9in /  1012.5hPa Calm   1mph /  1.6km/h 64% 0in /  0.0mm 74 W/m2
08:42 76.3 °F /  24.6 °C 63.1 °F /  17.3 °C 29.9in /  1012.5hPa NW 0.9mph /  1.4km/h 4mph /  6.4km/h 64% 0in /  0.0mm 77 W/m2
08:47 76.3 °F /  24.6 °C 62.8 °F /  17.1 °C 29.9in /  1012.5hPa NE 2mph /  3.2km/h 3mph /  4.8km/h 63% 0in /  0.0mm 79 W/m2
08:52 76.5 °F /  24.7 °C 63 °F /  17.2 °C 29.9in /  1012.5hPa Calm   2mph /  3.2km/h 63% 0in /  0.0mm 113 W/m2
08:57 76.8 °F /  24.9 °C 62.8 °F /  17.1 °C 29.9in /  1012.5hPa ENE 2mph /  3.2km/h 3mph /  4.8km/h 62% 0in /  0.0mm 220 W/m2
09:02 77.5 °F /  25.3 °C 63 °F /  17.2 °C 29.9in /  1012.9hPa East 0.9mph /  1.4km/h 2mph /  3.2km/h 61% 0in /  0.0mm 290 W/m2
09:07 78.1 °F /  25.6 °C 63.1 °F /  17.3 °C 29.9in /  1012.9hPa NE 2mph /  3.2km/h 4mph /  6.4km/h 60% 0in /  0.0mm 309 W/m2
09:12 78.3 °F /  25.7 °C 62.8 °F /  17.1 °C 29.9in /  1012.5hPa North 0.9mph /  1.4km/h 1mph /  1.6km/h 59% 0in /  0.0mm 322 W/m2
09:17 78.4 °F /  25.8 °C 63.3 °F /  17.4 °C 29.9in /  1012.9hPa Calm   4mph /  6.4km/h 60% 0in /  0.0mm 334 W/m2
09:22 78.8 °F /  26 °C 63.3 °F /  17.4 °C 29.9in /  1012.9hPa NE 2.9mph /  4.7km/h 3mph /  4.8km/h 59% 0in /  0.0mm 348 W/m2
09:27 79.2 °F /  26.2 °C 63.1 °F /  17.3 °C 29.9in /  1012.9hPa East 2.9mph /  4.7km/h 3mph /  4.8km/h 58% 0in /  0.0mm 359 W/m2
09:32 79.2 °F /  26.2 °C 63.1 °F /  17.3 °C 29.9in /  1012.9hPa ENE 0.9mph /  1.4km/h 2mph /  3.2km/h 58% 0in /  0.0mm 374 W/m2
09:37 79.3 °F /  26.3 °C 63.3 °F /  17.4 °C 29.9in /  1012.9hPa Calm   2mph /  3.2km/h 58% 0in /  0.0mm 388 W/m2
09:42 79.7 °F /  26.5 °C 62.6 °F /  17 °C 29.9in /  1012.9hPa ENE 2.9mph /  4.7km/h 5mph /  8km/h 56% 0in /  0.0mm 338 W/m2
09:48 80.1 °F /  26.7 °C 62.4 °F /  16.9 °C 29.9in /  1012.9hPa ESE 0.9mph /  1.4km/h 6mph /  9.7km/h 55% 0in /  0.0mm 102 W/m2
09:53 80.2 °F /  26.8 °C 62.6 °F /  17 °C 29.9in /  1012.9hPa NE 0.9mph /  1.4km/h 4mph /  6.4km/h 55% 0in /  0.0mm 401 W/m2
09:58 80.8 °F /  27.1 °C 63.1 °F /  17.3 °C 29.9in /  1012.9hPa East 0.9mph /  1.4km/h 5mph /  8km/h 55% 0in /  0.0mm 438 W/m2
10:03 81.1 °F /  27.3 °C 63 °F /  17.2 °C 29.9in /  1012.9hPa SSW 2mph /  3.2km/h 3mph /  4.8km/h 54% 0in /  0.0mm 455 W/m2
10:08 81.9 °F /  27.7 °C 63 °F /  17.2 °C 29.9in /  1012.9hPa NE 4mph /  6.4km/h 4mph /  6.4km/h 53% 0in /  0.0mm 473 W/m2
10:13 82 °F /  27.8 °C 62.6 °F /  17 °C 29.9in /  1012.5hPa East 0.9mph /  1.4km/h 4mph /  6.4km/h 52% 0in /  0.0mm 483 W/m2
10:18 82.4 °F /  28 °C 63 °F /  17.2 °C 29.9in /  1012.5hPa East 2mph /  3.2km/h 4mph /  6.4km/h 52% 0in /  0.0mm 490 W/m2
10:23 82.6 °F /  28.1 °C 63.1 °F /  17.3 °C 29.9in /  1012.5hPa SE 2.9mph /  4.7km/h 3mph /  4.8km/h 52% 0in /  0.0mm 506 W/m2
10:28 82.9 °F /  28.3 °C 64 °F /  17.8 °C 29.9in /  1012.5hPa NE 2.9mph /  4.7km/h 6mph /  9.7km/h 53% 0in /  0.0mm 515 W/m2
10:33 83.3 °F /  28.5 °C 63.3 °F /  17.4 °C 29.9in /  1012.5hPa Calm   1mph /  1.6km/h 51% 0in /  0.0mm 515 W/m2
10:38 83.5 °F /  28.6 °C 63.5 °F /  17.5 °C 29.9in /  1012.5hPa ESE 2mph /  3.2km/h 6mph /  9.7km/h 51% 0in /  0.0mm 529 W/m2
10:43 83.7 °F /  28.7 °C 63.7 °F /  17.6 °C 29.9in /  1012.5hPa NNE 4.9mph /  7.9km/h 6mph /  9.7km/h 51% 0in /  0.0mm 529 W/m2
10:48 83.8 °F /  28.8 °C 63.9 °F /  17.7 °C 29.9in /  1012.5hPa NE 2mph /  3.2km/h 2mph /  3.2km/h 51% 0in /  0.0mm 548 W/m2
10:53 84.4 °F /  29.1 °C 63.7 °F /  17.6 °C 29.9in /  1012.2hPa WNW 2mph /  3.2km/h 4mph /  6.4km/h 50% 0in /  0.0mm 566 W/m2
10:58 84.6 °F /  29.2 °C 63.3 °F /  17.4 °C 29.9in /  1012.2hPa NNE 0.9mph /  1.4km/h 1mph /  1.6km/h 49% 0in /  0.0mm 587 W/m2
11:03 84.7 °F /  29.3 °C 63 °F /  17.2 °C 29.9in /  1012.2hPa NE 0.9mph /  1.4km/h 3mph /  4.8km/h 48% 0in /  0.0mm 599 W/m2
11:08 85.1 °F /  29.5 °C 63.1 °F /  17.3 °C 29.9in /  1012.2hPa NE 0.9mph /  1.4km/h 4mph /  6.4km/h 48% 0in /  0.0mm 608 W/m2
11:13 85.6 °F /  29.8 °C 63.1 °F /  17.3 °C 29.9in /  1012.2hPa Calm   3mph /  4.8km/h 47% 0in /  0.0mm 619 W/m2
11:18 86.4 °F /  30.2 °C 63.1 °F /  17.3 °C 29.9in /  1012.2hPa ENE 0.9mph /  1.4km/h 7mph /  11.3km/h 46% 0in /  0.0mm 628 W/m2
11:23 86.7 °F /  30.4 °C 62.8 °F /  17.1 °C 29.9in /  1012.2hPa NNW 0.9mph /  1.4km/h 9mph /  14.5km/h 45% 0in /  0.0mm 642 W/m2
11:28 87.1 °F /  30.6 °C 62.6 °F /  17 °C 29.9in /  1012.2hPa NNE 6.9mph /  11.1km/h 8mph /  12.9km/h 44% 0in /  0.0mm 640 W/m2
11:33 87.3 °F /  30.7 °C 62.6 °F /  17 °C 29.9in /  1012.2hPa NNE 2mph /  3.2km/h 9mph /  14.5km/h 44% 0in /  0.0mm 649 W/m2
11:38 87.4 °F /  30.8 °C 62.8 °F /  17.1 °C 29.9in /  1012.2hPa NNE 2mph /  3.2km/h 5mph /  8km/h 44% 0in /  0.0mm 652 W/m2
11:43 87.6 °F /  30.9 °C 62.4 °F /  16.9 °C 29.9in /  1012.2hPa East 2.9mph /  4.7km/h 4mph /  6.4km/h 43% 0in /  0.0mm 666 W/m2
11:48 88.2 °F /  31.2 °C 62.8 °F /  17.1 °C 29.9in /  1012.2hPa NE 0.9mph /  1.4km/h 6mph /  9.7km/h 43% 0in /  0.0mm 668 W/m2
11:53 88.3 °F /  31.3 °C 62.4 °F /  16.9 °C 29.9in /  1012.2hPa NNW 2mph /  3.2km/h 3mph /  4.8km/h 42% 0in /  0.0mm 668 W/m2
11:58 88.9 °F /  31.6 °C 62.8 °F /  17.1 °C 29.9in /  1012.2hPa NE 4mph /  6.4km/h 4mph /  6.4km/h 42% 0in /  0.0mm 673 W/m2
12:04 89.1 °F /  31.7 °C 63 °F /  17.2 °C 29.9in /  1012.2hPa ENE 0.9mph /  1.4km/h 4mph /  6.4km/h 42% 0in /  0.0mm 693 W/m2
12:09 89.2 °F /  31.8 °C 62.4 °F /  16.9 °C 29.9in /  1012.2hPa NNE 2mph /  3.2km/h 3mph /  4.8km/h 41% 0in /  0.0mm 705 W/m2
12:14 89.8 °F /  32.1 °C 63 °F /  17.2 °C 29.9in /  1012.2hPa West 2mph /  3.2km/h 3mph /  4.8km/h 41% 0in /  0.0mm 731 W/m2
12:19 90 °F /  32.2 °C 63.1 °F /  17.3 °C 29.9in /  1012.2hPa ENE 2mph /  3.2km/h 2mph /  3.2km/h 41% 0in /  0.0mm 441 W/m2
12:24 90.3 °F /  32.4 °C 62.1 °F /  16.7 °C 29.9in /  1012.2hPa ENE 2mph /  3.2km/h 6mph /  9.7km/h 39% 0in /  0.0mm 387 W/m2
12:29 90.3 °F /  32.4 °C 62.1 °F /  16.7 °C 29.9in /  1011.9hPa ESE 2mph /  3.2km/h 3mph /  4.8km/h 39% 0in /  0.0mm 543 W/m2
12:34 90.3 °F /  32.4 °C 62.8 °F /  17.1 °C 29.9in /  1011.9hPa East 2mph /  3.2km/h 6mph /  9.7km/h 40% 0in /  0.0mm 671 W/m2
12:39 90.9 °F /  32.7 °C 63.1 °F /  17.3 °C 29.9in /  1011.9hPa SE 2.9mph /  4.7km/h 5mph /  8km/h 40% 0in /  0.0mm 759 W/m2
12:44 91.2 °F /  32.9 °C 62.8 °F /  17.1 °C 29.9in /  1011.9hPa NE 0.9mph /  1.4km/h 6mph /  9.7km/h 39% 0in /  0.0mm 729 W/m2
12:49 91.4 °F /  33 °C 62.2 °F /  16.8 °C 29.9in /  1011.9hPa NNE 0.9mph /  1.4km/h 2mph /  3.2km/h 38% 0in /  0.0mm 742 W/m2
12:54 91.8 °F /  33.2 °C 62.6 °F /  17 °C 29.9in /  1011.9hPa ENE 2mph /  3.2km/h 3mph /  4.8km/h 38% 0in /  0.0mm 640 W/m2
12:59 91.8 °F /  33.2 °C 63.3 °F /  17.4 °C 29.9in /  1011.9hPa NNW 2mph /  3.2km/h 3mph /  4.8km/h 39% 0in /  0.0mm 802 W/m2
13:04 92.1 °F /  33.4 °C 62.8 °F /  17.1 °C 29.9in /  1011.9hPa ESE 2mph /  3.2km/h 7mph /  11.3km/h 38% 0in /  0.0mm 796 W/m2
13:09 92.5 °F /  33.6 °C 62.4 °F /  16.9 °C 29.9in /  1011.9hPa ENE 2mph /  3.2km/h 2mph /  3.2km/h 37% 0in /  0.0mm 788 W/m2
13:14 92.8 °F /  33.8 °C 62.8 °F /  17.1 °C 29.9in /  1011.9hPa North 2.9mph /  4.7km/h 4mph /  6.4km/h 37% 0in /  0.0mm 782 W/m2
13:19 93 °F /  33.9 °C 63 °F /  17.2 °C 29.9in /  1011.9hPa Calm   1mph /  1.6km/h 37% 0in /  0.0mm 777 W/m2
13:24 92.7 °F /  33.7 °C 61.9 °F /  16.6 °C 29.9in /  1011.5hPa WSW 2mph /  3.2km/h 4mph /  6.4km/h 36% 0in /  0.0mm 589 W/m2
13:29 92.5 °F /  33.6 °C 62.4 °F /  16.9 °C 29.9in /  1011.5hPa SE 2.9mph /  4.7km/h 5mph /  8km/h 37% 0in /  0.0mm 714 W/m2
13:34 92.5 °F /  33.6 °C 62.4 °F /  16.9 °C 29.9in /  1011.5hPa Calm   3mph /  4.8km/h 37% 0in /  0.0mm 432 W/m2
13:39 92.5 °F /  33.6 °C 62.4 °F /  16.9 °C 29.9in /  1011.5hPa NE 2mph /  3.2km/h 5mph /  8km/h 37% 0in /  0.0mm 561 W/m2
13:45 92.8 °F /  33.8 °C 61.9 °F /  16.6 °C 29.9in /  1011.5hPa West 2.9mph /  4.7km/h 5mph /  8km/h 36% 0in /  0.0mm 846 W/m2
13:50 93.2 °F /  34 °C 61.5 °F /  16.4 °C 29.9in /  1011.2hPa East 2.9mph /  4.7km/h 6mph /  9.7km/h 35% 0in /  0.0mm 341 W/m2
13:55 93 °F /  33.9 °C 63 °F /  17.2 °C 29.9in /  1011.2hPa East 2.9mph /  4.7km/h 5mph /  8km/h 37% 0in /  0.0mm 366 W/m2
14:00 93.2 °F /  34 °C 63.1 °F /  17.3 °C 29.9in /  1011.2hPa East 4mph /  6.4km/h 6mph /  9.7km/h 37% 0in /  0.0mm 555 W/m2
14:05 93.7 °F /  34.3 °C 61.9 °F /  16.6 °C 29.9in /  1011.2hPa ENE 4mph /  6.4km/h 8mph /  12.9km/h 35% 0in /  0.0mm 817 W/m2
14:10 93.4 °F /  34.1 °C 61.7 °F /  16.5 °C 29.9in /  1011.2hPa NNW 0.9mph /  1.4km/h 2mph /  3.2km/h 35% 0in /  0.0mm 540 W/m2
14:15 93.6 °F /  34.2 °C 61 °F /  16.1 °C 29.9in /  1011.2hPa NW 2.9mph /  4.7km/h 8mph /  12.9km/h 34% 0in /  0.0mm 359 W/m2
14:20 93.7 °F /  34.3 °C 61.9 °F /  16.6 °C 29.9in /  1011.2hPa ENE 2.9mph /  4.7km/h 4mph /  6.4km/h 35% 0in /  0.0mm 410 W/m2
14:25 94.1 °F /  34.5 °C 61.5 °F /  16.4 °C 29.9in /  1011.2hPa SW 0.9mph /  1.4km/h 5mph /  8km/h 34% 0in /  0.0mm 315 W/m2
14:30 94.3 °F /  34.6 °C 61.5 °F /  16.4 °C 29.9in /  1011.2hPa ESE 0.9mph /  1.4km/h 2mph /  3.2km/h 34% 0in /  0.0mm 714 W/m2
14:35 94.8 °F /  34.9 °C 61.2 °F /  16.2 °C 29.9in /  1011.2hPa NE 4mph /  6.4km/h 4mph /  6.4km/h 33% 0in /  0.0mm 570 W/m2
14:40 95.2 °F /  35.1 °C 62.4 °F /  16.9 °C 29.9in /  1011.2hPa East 2.9mph /  4.7km/h 6mph /  9.7km/h 34% 0in /  0.0mm 816 W/m2
14:45 95.4 °F /  35.2 °C 61.7 °F /  16.5 °C 29.9in /  1010.8hPa ENE 2.9mph /  4.7km/h 5mph /  8km/h 33% 0in /  0.0mm 777 W/m2
14:50 95.7 °F /  35.4 °C 62.8 °F /  17.1 °C 29.9in /  1010.8hPa ESE 2mph /  3.2km/h 4mph /  6.4km/h 34% 0in /  0.0mm 780 W/m2
14:55 95.7 °F /  35.4 °C 62.8 °F /  17.1 °C 29.9in /  1011.2hPa East 2mph /  3.2km/h 4mph /  6.4km/h 34% 0in /  0.0mm 715 W/m2
15:00 95.5 °F /  35.3 °C 62.8 °F /  17.1 °C 29.9in /  1011.2hPa East 2mph /  3.2km/h 4mph /  6.4km/h 34% 0in /  0.0mm 738 W/m2
15:05 95.5 °F /  35.3 °C 61.9 °F /  16.6 °C 29.9in /  1011.2hPa ENE 2.9mph /  4.7km/h 9mph /  14.5km/h 33% 0in /  0.0mm 737 W/m2
15:10 95.4 °F /  35.2 °C 61.7 °F /  16.5 °C 29.9in /  1010.8hPa ENE 0.9mph /  1.4km/h 8mph /  12.9km/h 33% 0in /  0.0mm 738 W/m2
15:15 95.5 °F /  35.3 °C 61 °F /  16.1 °C 29.9in /  1010.8hPa SE 4mph /  6.4km/h 4mph /  6.4km/h 32% 0in /  0.0mm 737 W/m2
15:20 96.1 °F /  35.6 °C 61.5 °F /  16.4 °C 29.9in /  1010.8hPa ESE 2.9mph /  4.7km/h 4mph /  6.4km/h 32% 0in /  0.0mm 714 W/m2
15:25 96.1 °F /  35.6 °C 60.6 °F /  15.9 °C 29.9in /  1010.8hPa ESE 2mph /  3.2km/h 4mph /  6.4km/h 31% 0in /  0.0mm 719 W/m2
15:30 95.7 °F /  35.4 °C 60.3 °F /  15.7 °C 29.9in /  1010.8hPa SE 2mph /  3.2km/h 3mph /  4.8km/h 31% 0in /  0.0mm 738 W/m2
15:35 95.9 °F /  35.5 °C 59.5 °F /  15.3 °C 29.9in /  1010.8hPa WNW 2mph /  3.2km/h 4mph /  6.4km/h 30% 0in /  0.0mm 719 W/m2
15:40 95.7 °F /  35.4 °C 60.3 °F /  15.7 °C 29.9in /  1010.8hPa ENE 2.9mph /  4.7km/h 3mph /  4.8km/h 31% 0in /  0.0mm 696 W/m2
15:45 96.1 °F /  35.6 °C 60.6 °F /  15.9 °C 29.9in /  1010.8hPa ENE 2.9mph /  4.7km/h 4mph /  6.4km/h 31% 0in /  0.0mm 707 W/m2
15:50 96.3 °F /  35.7 °C 59.7 °F /  15.4 °C 29.9in /  1010.8hPa North 0.9mph /  1.4km/h 7mph /  11.3km/h 30% 0in /  0.0mm 728 W/m2
15:56 96.1 °F /  35.6 °C 60.6 °F /  15.9 °C 29.8in /  1010.5hPa NE 2mph /  3.2km/h 3mph /  4.8km/h 31% 0in /  0.0mm 701 W/m2
16:01 96.3 °F /  35.7 °C 59.7 °F /  15.4 °C 29.8in /  1010.5hPa Calm   4mph /  6.4km/h 30% 0in /  0.0mm 601 W/m2
16:06 96.1 °F /  35.6 °C 59.5 °F /  15.3 °C 29.8in /  1010.5hPa ESE 2.9mph /  4.7km/h 4mph /  6.4km/h 30% 0in /  0.0mm 271 W/m2
16:11 95.7 °F /  35.4 °C 60.3 °F /  15.7 °C 29.8in /  1010.5hPa East 2.9mph /  4.7km/h 3mph /  4.8km/h 31% 0in /  0.0mm 350 W/m2
16:16 95.5 °F /  35.3 °C 60.1 °F /  15.6 °C 29.8in /  1010.5hPa East 2mph /  3.2km/h 4mph /  6.4km/h 31% 0in /  0.0mm 436 W/m2
16:21 95.4 °F /  35.2 °C 59.9 °F /  15.5 °C 29.8in /  1010.2hPa Calm   3mph /  4.8km/h 31% 0in /  0.0mm 281 W/m2
16:26 94.6 °F /  34.8 °C 61 °F /  16.1 °C 29.8in /  1010.5hPa NE 0.9mph /  1.4km/h 5mph /  8km/h 33% 0in /  0.0mm 301 W/m2
16:31 94.5 °F /  34.7 °C 61 °F /  16.1 °C 29.8in /  1010.2hPa ENE 0.9mph /  1.4km/h 2mph /  3.2km/h 33% 0in /  0.0mm 202 W/m2
16:36 94.3 °F /  34.6 °C 59.9 °F /  15.5 °C 29.8in /  1010.2hPa ENE 2.9mph /  4.7km/h 3mph /  4.8km/h 32% 0in /  0.0mm 239 W/m2
16:42 94.3 °F /  34.6 °C 59.9 °F /  15.5 °C 29.8in /  1010.2hPa ESE 2mph /  3.2km/h 3mph /  4.8km/h 32% 0in /  0.0mm 304 W/m2
16:47 94.3 °F /  34.6 °C 61.5 °F /  16.4 °C 29.8in /  1010.2hPa ESE 0.9mph /  1.4km/h 2mph /  3.2km/h 34% 0in /  0.0mm 246 W/m2
16:52 94.1 °F /  34.5 °C 59.7 °F /  15.4 °C 29.8in /  1010.2hPa NNE 0.9mph /  1.4km/h 3mph /  4.8km/h 32% 0in /  0.0mm 338 W/m2
16:57 94.1 °F /  34.5 °C 59.7 °F /  15.4 °C 29.8in /  1010.2hPa NE 2.9mph /  4.7km/h 4mph /  6.4km/h 32% 0in /  0.0mm 257 W/m2
17:02 94.1 °F /  34.5 °C 59.7 °F /  15.4 °C 29.8in /  1010.2hPa ENE 0.9mph /  1.4km/h 2mph /  3.2km/h 32% 0in /  0.0mm 267 W/m2
17:07 93.9 °F /  34.4 °C 60.4 °F /  15.8 °C 29.8in /  1010.2hPa Calm   2mph /  3.2km/h 33% 0in /  0.0mm 304 W/m2
17:12 94.1 °F /  34.5 °C 60.6 °F /  15.9 °C 29.8in /  1010.2hPa NE 0.9mph /  1.4km/h 2mph /  3.2km/h 33% 0in /  0.0mm 534 W/m2
17:17 94.6 °F /  34.8 °C 61 °F /  16.1 °C 29.8in /  1010.2hPa SE 2.9mph /  4.7km/h 4mph /  6.4km/h 33% 0in /  0.0mm 510 W/m2
17:22 95.2 °F /  35.1 °C 60.6 °F /  15.9 °C 29.8in /  1010.2hPa WSW 0.9mph /  1.4km/h 4mph /  6.4km/h 32% 0in /  0.0mm 541 W/m2
17:27 95.7 °F /  35.4 °C 61.2 °F /  16.2 °C 29.8in /  1010.2hPa ESE 0.9mph /  1.4km/h 2mph /  3.2km/h 32% 0in /  0.0mm 543 W/m2
17:32 96.1 °F /  35.6 °C 60.6 °F /  15.9 °C 29.8in /  1010.2hPa ENE 0.9mph /  1.4km/h 3mph /  4.8km/h 31% 0in /  0.0mm 413 W/m2
17:37 96.1 °F /  35.6 °C 61.5 °F /  16.4 °C 29.8in /  1010.2hPa SE 2mph /  3.2km/h 4mph /  6.4km/h 32% 0in /  0.0mm 446 W/m2
17:42 96.1 °F /  35.6 °C 60.6 °F /  15.9 °C 29.8in /  1010.2hPa NNE 2.9mph /  4.7km/h 4mph /  6.4km/h 31% 0in /  0.0mm 448 W/m2
17:47 96.1 °F /  35.6 °C 59.5 °F /  15.3 °C 29.8in /  1010.2hPa ESE 0.9mph /  1.4km/h 2mph /  3.2km/h 30% 0in /  0.0mm 394 W/m2
17:52 96.1 °F /  35.6 °C 59.5 °F /  15.3 °C 29.8in /  1010.2hPa ENE 0.9mph /  1.4km/h 2mph /  3.2km/h 30% 0in /  0.0mm 253 W/m2
17:57 96.3 °F /  35.7 °C 60.6 °F /  15.9 °C 29.8in /  1010.2hPa ESE 0.9mph /  1.4km/h 8mph /  12.9km/h 31% 0in /  0.0mm 499 W/m2
18:02 96.6 °F /  35.9 °C 60.1 °F /  15.6 °C 29.8in /  1010.2hPa SE 0.9mph /  1.4km/h 3mph /  4.8km/h 30% 0in /  0.0mm 380 W/m2
18:07 96.8 °F /  36 °C 60.3 °F /  15.7 °C 29.8in /  1010.2hPa SE 2.9mph /  4.7km/h 4mph /  6.4km/h 30% 0in /  0.0mm 251 W/m2
18:12 96.4 °F /  35.8 °C 59 °F /  15 °C 29.8in /  1010.2hPa WNW 4mph /  6.4km/h 4mph /  6.4km/h 29% 0in /  0.0mm 209 W/m2
18:17 95.7 °F /  35.4 °C 60.3 °F /  15.7 °C 29.8in /  1010.2hPa East 0.9mph /  1.4km/h 3mph /  4.8km/h 31% 0in /  0.0mm 192 W/m2
18:22 95.4 °F /  35.2 °C 59.9 °F /  15.5 °C 29.8in /  1010.2hPa ESE 0.9mph /  1.4km/h 2mph /  3.2km/h 31% 0in /  0.0mm 192 W/m2
18:27 95.2 °F /  35.1 °C 58.8 °F /  14.9 °C 29.8in /  1010.2hPa Calm   3mph /  4.8km/h 30% 0in /  0.0mm 308 W/m2
18:32 95.2 °F /  35.1 °C 60.6 °F /  15.9 °C 29.8in /  1010.2hPa Calm   2mph /  3.2km/h 32% 0in /  0.0mm 315 W/m2
18:37 95.4 °F /  35.2 °C 59.9 °F /  15.5 °C 29.8in /  1009.8hPa ESE 0.9mph /  1.4km/h 2mph /  3.2km/h 31% 0in /  0.0mm 388 W/m2
18:42 95.5 °F /  35.3 °C 59.2 °F /  15.1 °C 29.8in /  1009.8hPa ESE 2mph /  3.2km/h 6mph /  9.7km/h 30% 0in /  0.0mm 369 W/m2
18:47 95.9 °F /  35.5 °C 59.5 °F /  15.3 °C 29.8in /  1009.8hPa Calm   1mph /  1.6km/h 30% 0in /  0.0mm 360 W/m2
18:52 96.1 °F /  35.6 °C 58.6 °F /  14.8 °C 29.8in /  1009.8hPa East 4mph /  6.4km/h 4mph /  6.4km/h 29% 0in /  0.0mm 348 W/m2
18:57 96.1 °F /  35.6 °C 58.6 °F /  14.8 °C 29.8in /  1009.8hPa NNE 2mph /  3.2km/h 3mph /  4.8km/h 29% 0in /  0.0mm 332 W/m2
19:02 96.1 °F /  35.6 °C 59.5 °F /  15.3 °C 29.8in /  1009.8hPa Calm   3mph /  4.8km/h 30% 0in /  0.0mm 320 W/m2
19:07 96.4 °F /  35.8 °C 59 °F /  15 °C 29.8in /  1009.8hPa NE 2mph /  3.2km/h 4mph /  6.4km/h 29% 0in /  0.0mm 274 W/m2
19:12 96.1 °F /  35.6 °C 59.5 °F /  15.3 °C 29.8in /  1009.8hPa East 0.9mph /  1.4km/h 3mph /  4.8km/h 30% 0in /  0.0mm 113 W/m2
19:17 95.4 °F /  35.2 °C 59.9 °F /  15.5 °C 29.8in /  1009.8hPa Calm   2mph /  3.2km/h 31% 0in /  0.0mm 91 W/m2
19:22 94.8 °F /  34.9 °C 60.4 °F /  15.8 °C 29.8in /  1009.8hPa Calm   1mph /  1.6km/h 32% 0in /  0.0mm 118 W/m2
19:27 94.3 °F /  34.6 °C 61.5 °F /  16.4 °C 29.8in /  1009.8hPa Calm   1mph /  1.6km/h 34% 0in /  0.0mm 81 W/m2
19:32 93.6 °F /  34.2 °C 61 °F /  16.1 °C 29.8in /  1009.8hPa ENE 0.9mph /  1.4km/h 2mph /  3.2km/h 34% 0in /  0.0mm 97 W/m2
19:37 92.8 °F /  33.8 °C 61.2 °F /  16.2 °C 29.8in /  1009.8hPa NE 0.9mph /  1.4km/h 1mph /  1.6km/h 35% 0in /  0.0mm 84 W/m2
19:42 92.3 °F /  33.5 °C 61.5 °F /  16.4 °C 29.8in /  1009.8hPa Calm     36% 0in /  0.0mm 102 W/m2
19:47 91.9 °F /  33.3 °C 61.9 °F /  16.6 °C 29.8in /  1010.2hPa Calm   2mph /  3.2km/h 37% 0in /  0.0mm 69 W/m2
19:52 91.2 °F /  32.9 °C 61.3 °F /  16.3 °C 29.8in /  1009.8hPa Calm   1mph /  1.6km/h 37% 0in /  0.0mm 62 W/m2
19:57 90.7 °F /  32.6 °C 61.5 °F /  16.4 °C 29.8in /  1009.8hPa Calm   2mph /  3.2km/h 38% 0in /  0.0mm 54 W/m2
20:02 90.1 °F /  32.3 °C 61.9 °F /  16.6 °C 29.8in /  1009.8hPa Calm     39% 0in /  0.0mm 49 W/m2
20:08 89.8 °F /  32.1 °C 61.5 °F /  16.4 °C 29.8in /  1010.2hPa NNE 0.9mph /  1.4km/h 1mph /  1.6km/h 39% 0in /  0.0mm 44 W/m2
20:13 89.2 °F /  31.8 °C 62.4 °F /  16.9 °C 29.8in /  1010.2hPa Calm   1mph /  1.6km/h 41% 0in /  0.0mm 33 W/m2
20:18 88.9 °F /  31.6 °C 62.1 °F /  16.7 °C 29.8in /  1010.2hPa Calm   1mph /  1.6km/h 41% 0in /  0.0mm 26 W/m2
20:23 88.3 °F /  31.3 °C 62.4 °F /  16.9 °C 29.8in /  1010.2hPa NNE 0.9mph /  1.4km/h 1mph /  1.6km/h 42% 0in /  0.0mm 19 W/m2
20:28 87.8 °F /  31 °C 61.9 °F /  16.6 °C 29.8in /  1010.5hPa Calm     42% 0in /  0.0mm 16 W/m2
20:33 87.3 °F /  30.7 °C 61.3 °F /  16.3 °C 29.8in /  1010.5hPa SW 0.9mph /  1.4km/h 3mph /  4.8km/h 42% 0in /  0.0mm 14 W/m2
20:38 86.5 °F /  30.3 °C 61.3 °F /  16.3 °C 29.8in /  1010.5hPa SSE 0.9mph /  1.4km/h 2mph /  3.2km/h 43% 0in /  0.0mm 11 W/m2
20:43 86.2 °F /  30.1 °C 62.4 °F /  16.9 °C 29.9in /  1010.8hPa SSE 0.9mph /  1.4km/h 3mph /  4.8km/h 45% 0in /  0.0mm 7 W/m2
20:48 85.6 °F /  29.8 °C 61.2 °F /  16.2 °C 29.8in /  1010.5hPa SSE 0.9mph /  1.4km/h 1mph /  1.6km/h 44% 0in /  0.0mm 5 W/m2
20:53 85.6 °F /  29.8 °C 61.2 °F /  16.2 °C 29.8in /  1010.5hPa WNW 0.9mph /  1.4km/h 3mph /  4.8km/h 44% 0in /  0.0mm 0 W/m2
20:58 85.6 °F /  29.8 °C 61.2 °F /  16.2 °C 29.9in /  1010.8hPa NE 0.9mph /  1.4km/h 3mph /  4.8km/h 44% 0in /  0.0mm 0 W/m2
21:03 85.8 °F /  29.9 °C 62.1 °F /  16.7 °C 29.9in /  1010.8hPa Calm   1mph /  1.6km/h 45% 0in /  0.0mm 0 W/m2
21:08 85.5 °F /  29.7 °C 62.2 °F /  16.8 °C 29.9in /  1010.8hPa SE 0.9mph /  1.4km/h 3mph /  4.8km/h 46% 0in /  0.0mm 0 W/m2
21:13 84.9 °F /  29.4 °C 61.9 °F /  16.6 °C 29.9in /  1010.8hPa SSW 0.9mph /  1.4km/h 2mph /  3.2km/h 46% 0in /  0.0mm 0 W/m2
21:18 84.4 °F /  29.1 °C 62.6 °F /  17 °C 29.9in /  1010.8hPa Calm   1mph /  1.6km/h 48% 0in /  0.0mm 0 W/m2
21:23 83.8 °F /  28.8 °C 62.1 °F /  16.7 °C 29.9in /  1010.8hPa WSW 2mph /  3.2km/h 2mph /  3.2km/h 48% 0in /  0.0mm 0 W/m2
21:28 83.5 °F /  28.6 °C 62.2 °F /  16.8 °C 29.9in /  1011.2hPa Calm   3mph /  4.8km/h 49% 0in /  0.0mm 0 W/m2
Juneau County Weather
Compliments of Weather Underground - 4 mb